METAR* REPORTS - Stations within 60 miles

(*Meteorological Terminal Aviation Routine weather report)

 

KRDG - Reading, Pennsylvania, USA
Distance from station: SE 19mi, 31km
Updated: Sun, 20-Oct-2019 9:54pm EDT
Mist, Overcast
Mist, Overcast
 Wind from NNE
Wind: NNE 6 mph , 9 km/h
Temperature: 54°F , 12°C
Dew Point: 54°F , 12°C
Humidity: 100%
Barometer: 29.97 inHg , 1014.9 hPa
Summary: Mist
Clouds: Overcast
Visibility: 4 miles , 6 km
Cloud details: Overcast 800 ft
2019/10/21 01:54 KRDG 210154Z 03005KT 4SM BR OVC008 12/12 A2997 RMK AO2 RAE33B35E48 SLP156 P0001 T01170117
KLNS - Lancaster, Pennsylvania, USA
Distance from station: S 33mi, 53km
Updated: Sun, 20-Oct-2019 9:53pm EDT
Overcast
Overcast
 Wind from N
Wind: N 6 mph , 9 km/h
Temperature: 54°F , 12°C
Dew Point: 50°F , 10°C
Humidity: 88%
Barometer: 29.98 inHg , 1015.2 hPa
Clouds: Overcast
Visibility: 8 miles , 13 km
Cloud details: Overcast 1300 ft
2019/10/21 01:53 KLNS 210153Z 01005KT 8SM OVC013 12/10 A2998 RMK AO2 RAB0055E28 SLP152 P0001 T01220100
 
KSEG - Selinsgrove, Pennsylvania, USA
Distance from station: WNW 39mi, 62km
Updated: Sun, 20-Oct-2019 10:17pm EDT
Mist, Overcast
Mist, Overcast
 Wind from calm
Wind: Calm
Temperature: 48°F , 9°C
Dew Point: 46°F , 8°C
Humidity: 94%
Barometer: 30.00 inHg , 1015.9 hPa
Summary: Mist
Clouds: Overcast
Visibility: 1 mile , 2 km
Cloud details: Overcast 1900 ft
2019/10/21 02:17 KSEG 210217Z AUTO 00000KT 1SM BR VV019 09/08 A3000 RMK AO2 T00890083
KABE - Allentown, Pennsylvania, USA
Distance from station: E 39mi, 63km
Updated: Wed, 16-Oct-2019 11:51pm EDT
NOT Current
Mostly Cloudy
Mostly Cloudy
 Wind from WNW
Wind: WNW 13 mph , 20 km/h, Gust: 22 mph , 35 km/h
Temperature: 52°F , 11°C
Dew Point: 39°F , 4°C
Humidity: 62%
Barometer: 29.39 inHg , 995.3 hPa
Clouds: Mostly Cloudy
Visibility: 10 miles , 16 km
Cloud details: Mostly Cloudy 4600 ft
2019/10/17 03:51 KABE 170351Z 29011G19KT 10SM BKN046 11/04 A2939 RMK AO2 PK WND 29029/0339 SLP951 T01060039 $
 
KMDT - Middletown, Pennsylvania, USA
Distance from station: SW 40mi, 65km
Updated: Sun, 20-Oct-2019 9:56pm EDT
Partly Cloudy
Partly Cloudy
 Wind from NW
Wind: NW 3 mph , 6 km/h
Temperature: 54°F , 12°C
Dew Point: 50°F , 10°C
Humidity: 88%
Barometer: 29.98 inHg , 1015.2 hPa
Clouds: Partly Cloudy
Visibility: 7 miles , 11 km
Cloud details: Few Clouds 1600 ft
Partly Cloudy 16000 ft
2019/10/21 01:56 KMDT 210156Z 31003KT 7SM FEW016 SCT160 12/10 A2998 RMK AO2 RAE04 SLP154 P0000 T01170100
KPTW - Pottstown, Pennsylvania, USA
Distance from station: SE 42mi, 67km
Updated: Sun, 20-Oct-2019 9:54pm EDT
Overcast
Overcast
 Wind from NNE
Wind: NNE 6 mph , 9 km/h
Temperature: 52°F , 11°C
Dew Point: 52°F , 11°C
Humidity: 100%
Barometer: 29.99 inHg , 1015.6 hPa
Clouds: Overcast
Visibility: 8 miles , 13 km
Cloud details: Overcast 1000 ft
2019/10/21 01:54 KPTW 210154Z AUTO 02005KT 8SM OVC010 11/11 A2999 RMK AO2 SLP152 T01060106
 
KCXY - Harrisburg, Pennsylvania, USA
Distance from station: SW 43mi, 69km
Updated: Sun, 20-Oct-2019 9:56pm EDT
Clear
Clear
 Wind from NNW
Wind: NNW 3 mph , 6 km/h
Temperature: 55°F , 13°C
Dew Point: 48°F , 9°C
Humidity: 77%
Barometer: 29.99 inHg , 1015.6 hPa
Clouds: Clear
Visibility: 10 miles , 16 km
2019/10/21 01:56 KCXY 210156Z AUTO 34003KT 10SM CLR 13/09 A2999 RMK AO2 SLP157 T01330094
KUKT - Quakertown Arp, Pennsylvania, USA
Distance from station: ESE 44mi, 70km
Updated: Sun, 20-Oct-2019 10:20pm EDT
Overcast
Overcast
 Wind from NNE
Wind: NNE 3 mph , 6 km/h
Temperature: 52°F , 11°C
Dew Point: 52°F , 11°C
Humidity: 100%
Barometer: 29.98 inHg , 1015.2 hPa
Clouds: Overcast
Visibility: 7 miles , 11 km
Cloud details: Overcast 1400 ft
2019/10/21 02:20 KUKT 210220Z AUTO 03003KT 7SM OVC014 11/11 A2998 RMK A01
 
KMQS - Coatesville, Pennsylvania, USA
Distance from station: SSE 45mi, 72km
Updated: Sun, 20-Oct-2019 10:15pm EDT
Overcast
Overcast
 Wind from NNE
Wind: NNE 9 mph , 15 km/h, Gust: 15 mph , 24 km/h
Temperature: 52°F , 11°C
Dew Point: 52°F , 11°C
Humidity: 100%
Barometer: 29.97 inHg , 1014.9 hPa
Clouds: Overcast
Visibility: 9 miles , 14 km
Cloud details: Overcast 400 ft
2019/10/21 02:15 KMQS 210215Z AUTO 03008G13KT 9SM OVC004 11/11 A2997 RMK AO2
KMPO - Mt. Pocono, Pennsylvania, USA
Distance from station: NE 57mi, 92km
Updated: Sun, 20-Oct-2019 9:53pm EDT
Overcast
Overcast
 Wind from varies
Wind: varies 7 mph , 11 km/h
Temperature: 46°F , 8°C
Wind Chill: 42°F , 6°C
Dew Point: 46°F , 8°C
Humidity: 100%
Barometer: 30.00 inHg , 1015.9 hPa
Clouds: Overcast
Visibility: 7 miles , 11 km
Cloud details: Overcast 300 ft
2019/10/21 01:53 KMPO 210153Z AUTO VRB06KT 7SM OVC003 08/08 A3000 RMK AO2 SLP165 T00830083
 
KAVP - Avoca/Wilkes B., Pennsylvania, USA
Distance from station: NNE 58mi, 93km
Updated: Thu, 17-Oct-2019 12:11am EDT
NOT Current
Overcast
Overcast
 Wind from WNW
Wind: WNW 6 mph , 9 km/h
Temperature: 48°F , 9°C
Wind Chill: 45°F , 7°C
Dew Point: 43°F , 6°C
Humidity: 82%
Barometer: 29.41 inHg , 995.9 hPa
Clouds: Overcast
Visibility: 10 miles , 16 km
Cloud details: Mostly Cloudy 2500 ft
Mostly Cloudy 3100 ft
Overcast 4800 ft
2019/10/17 04:11 KAVP 170411Z 29005KT 10SM BKN025 BKN031 OVC048 09/06 A2941 RMK AO2 T00940061
KTHV - York, Pennsylvania, USA
Distance from station: SW 59mi, 94km
Updated: Sun, 20-Oct-2019 9:53pm EDT
Mist, Overcast
Mist, Overcast
 Wind from N
Wind: N 7 mph , 11 km/h
Temperature: 52°F , 11°C
Dew Point: 48°F , 9°C
Humidity: 88%
Barometer: 29.98 inHg , 1015.2 hPa
Summary: Mist
Clouds: Overcast
Visibility: 6 miles , 10 km
Cloud details: Overcast 1000 ft
2019/10/21 01:53 KTHV 210153Z AUTO 35006KT 6SM BR OVC010 11/09 A2998 RMK AO2 RAE0054B29E39 SLP157 P0000 T01110094 $
 
KDYL - Doylestown, Pennsylvania, USA
Distance from station: ESE 59mi, 95km
Updated: Sun, 20-Oct-2019 10:21pm EDT
Overcast
Overcast
 Wind from NE
Wind: NE 6 mph , 9 km/h
Temperature: 54°F , 12°C
Dew Point: 52°F , 11°C
Humidity: 94%
Barometer: 29.97 inHg , 1014.9 hPa
Clouds: Overcast
Visibility: 10 miles , 16 km
Cloud details: Overcast 400 ft
2019/10/21 02:21 KDYL 210221Z AUTO 04005KT 10SM OVC004 12/11 A2997 RMK AO2 T01170106 PNO $
KIPT - Williamsport, Pennsylvania, USA
Distance from station: NW 60mi, 96km
Updated: Sun, 20-Oct-2019 10:18pm EDT
Partly Cloudy
Partly Cloudy
 Wind from calm
Wind: Calm
Temperature: 46°F , 8°C
Dew Point: 45°F , 7°C
Humidity: 93%
Barometer: 30.00 inHg , 1015.9 hPa
Clouds: Partly Cloudy
Visibility: 7 miles , 11 km
Cloud details: Partly Cloudy 2400 ft
2019/10/21 02:18 KIPT 210218Z 00000KT 7SM SCT024 08/07 A3000 RMK AO2 T00830072